Time;durP1;ratioP1;P1;durP2;ratioP2;P2;SDS_P1;SDS_P2;PMS_P1;PMS_P2;Temp;Humidity;BMP_temperature;BMP_pressure;BME280_temperature;BME280_humidity;BME280_pressure;Samples;Min_cycle;Max_cycle;Signal;HPM_P1;HPM_P2
2021/11/26 00:01:34;;;;;;;8.30;4.22;;;2.80;99.90;;;;;;5022088;28;20037;-92
2021/11/26 00:04:07;;;;;;;9.43;4.25;;;2.80;99.90;;;;;;5054968;28;20021;-94
2021/11/26 00:06:37;;;;;;;9.60;4.70;;;2.80;99.90;;;;;;5036255;28;20108;-94
2021/11/26 00:09:04;;;;;;;7.53;3.95;;;2.80;99.90;;;;;;5033935;28;20071;-94
2021/11/26 00:11:33;;;;;;;11.48;4.88;;;2.80;99.90;;;;;;5035495;28;20076;-94
2021/11/26 00:16:53;;;;;;;10.40;4.32;;;2.90;99.90;;;;;;5014627;28;20076;-92
2021/11/26 00:19:20;;;;;;;10.25;4.70;;;2.90;99.90;;;;;;5053213;28;20029;-93
2021/11/26 00:21:48;;;;;;;6.53;3.90;;;2.90;99.90;;;;;;5053687;28;20183;-94
2021/11/26 00:24:14;;;;;;;6.82;3.70;;;3.00;99.90;;;;;;5040896;28;20026;-94
2021/11/26 00:26:40;;;;;;;8.50;4.25;;;3.00;99.90;;;;;;5037280;28;20035;-93
2021/11/26 00:29:08;;;;;;;7.00;3.50;;;3.10;99.90;;;;;;5052189;28;20054;-93
2021/11/26 00:31:35;;;;;;;8.75;4.03;;;3.10;99.90;;;;;;5046587;28;20547;-93
2021/11/26 00:34:04;;;;;;;8.13;3.90;;;3.10;99.90;;;;;;5031541;28;20080;-93
2021/11/26 00:36:32;;;;;;;9.85;4.72;;;3.10;99.90;;;;;;5051466;28;20167;-94
2021/11/26 00:38:59;;;;;;;9.32;4.00;;;3.10;99.90;;;;;;5049728;28;20097;-93
2021/11/26 00:41:26;;;;;;;8.65;4.47;;;3.10;99.90;;;;;;5067958;28;20131;-93
2021/11/26 00:43:51;;;;;;;7.72;3.78;;;3.20;99.90;;;;;;5035150;28;20055;-93
2021/11/26 00:46:26;;;;;;;7.22;3.90;;;3.20;99.90;;;;;;5037635;28;20030;-93
2021/11/26 00:48:53;;;;;;;9.50;4.32;;;3.20;99.90;;;;;;5045258;28;20423;-92
2021/11/26 00:51:20;;;;;;;6.18;3.63;;;3.20;99.90;;;;;;5035283;28;20048;-92
2021/11/26 00:53:48;;;;;;;8.13;3.85;;;3.20;99.90;;;;;;5051016;28;20517;-92
2021/11/26 00:56:14;;;;;;;10.30;4.75;;;3.20;99.90;;;;;;5052908;28;20063;-92
2021/11/26 00:58:41;;;;;;;8.95;4.15;;;3.20;99.90;;;;;;5051807;28;20192;-93
2021/11/26 01:01:07;;;;;;;8.23;3.78;;;3.20;99.90;;;;;;5050449;28;20291;-92
2021/11/26 01:03:33;;;;;;;9.48;4.28;;;3.20;99.90;;;;;;5036390;28;20033;-92
2021/11/26 01:05:58;;;;;;;9.18;4.13;;;3.20;99.90;;;;;;5050880;28;20032;-92
2021/11/26 01:08:26;;;;;;;5.88;3.53;;;3.30;99.90;;;;;;5036222;28;20069;-92
2021/11/26 01:10:56;;;;;;;8.43;3.42;;;3.30;99.90;;;;;;5031717;28;20029;-93
2021/11/26 01:13:23;;;;;;;8.40;4.00;;;3.20;99.90;;;;;;5050737;28;20039;-93
2021/11/26 01:15:51;;;;;;;7.43;3.67;;;3.30;99.90;;;;;;5052958;28;20025;-93
2021/11/26 01:18:18;;;;;;;8.75;3.90;;;3.30;99.90;;;;;;5038870;28;20125;-92
2021/11/26 01:20:46;;;;;;;8.35;3.55;;;3.40;99.90;;;;;;5048311;28;20033;-93
2021/11/26 01:23:14;;;;;;;7.70;4.07;;;3.40;99.90;;;;;;5017582;28;20029;-93
2021/11/26 01:25:42;;;;;;;6.78;4.18;;;3.40;99.90;;;;;;5051439;28;20473;-93
2021/11/26 01:28:09;;;;;;;8.40;4.50;;;3.50;99.90;;;;;;5033375;28;20026;-92
2021/11/26 01:30:43;;;;;;;10.85;5.18;;;3.50;99.90;;;;;;5031541;28;20068;-92
2021/11/26 01:33:15;;;;;;;7.80;3.95;;;3.60;99.90;;;;;;5032918;28;20293;-93
2021/11/26 01:35:49;;;;;;;12.40;5.75;;;3.60;99.90;;;;;;5038603;28;20086;-92
2021/11/26 01:38:15;;;;;;;11.52;5.43;;;3.60;99.90;;;;;;5041822;28;20083;-93
2021/11/26 01:40:44;;;;;;;11.20;4.65;;;3.60;99.90;;;;;;5046320;28;20486;-92
2021/11/26 01:43:13;;;;;;;9.32;5.07;;;3.70;99.90;;;;;;5052189;28;20025;-92
2021/11/26 01:46:09;;;;;;;9.13;4.80;;;3.70;99.90;;;;;;5050888;28;20028;-90
2021/11/26 01:48:39;;;;;;;10.65;4.75;;;3.70;99.90;;;;;;5050802;28;20025;-93
2021/11/26 01:51:06;;;;;;;9.90;4.28;;;3.70;99.90;;;;;;5048684;28;20112;-93
2021/11/26 01:53:33;;;;;;;7.47;3.92;;;3.80;99.90;;;;;;5032573;28;20049;-92
2021/11/26 01:55:59;;;;;;;9.05;3.50;;;3.70;99.90;;;;;;5041047;28;20036;-93
2021/11/26 01:58:27;;;;;;;6.30;3.05;;;3.80;99.90;;;;;;5039891;28;20025;-93
2021/11/26 02:00:56;;;;;;;5.38;3.30;;;3.80;99.90;;;;;;5029712;28;20030;-92
2021/11/26 02:03:22;;;;;;;6.97;2.90;;;3.80;99.90;;;;;;5018289;28;20492;-93
2021/11/26 02:05:48;;;;;;;5.18;2.78;;;3.90;99.90;;;;;;5044581;28;20101;-92
2021/11/26 02:08:15;;;;;;;4.57;2.47;;;3.90;99.90;;;;;;5031350;28;20026;-92
2021/11/26 02:10:47;;;;;;;7.57;2.40;;;3.90;99.90;;;;;;5044897;28;20037;-92
2021/11/26 02:13:14;;;;;;;4.97;2.40;;;3.90;99.90;;;;;;5032784;28;20095;-93
2021/11/26 02:15:44;;;;;;;3.95;1.58;;;3.90;99.90;;;;;;5042663;28;20017;-92
2021/11/26 02:18:13;;;;;;;4.43;1.92;;;4.00;99.90;;;;;;5042706;28;20480;-93
2021/11/26 02:20:42;;;;;;;2.80;1.20;;;4.00;99.90;;;;;;5051993;28;20079;-94
2021/11/26 02:23:09;;;;;;;3.78;1.88;;;4.10;99.90;;;;;;5018957;28;20088;-94
2021/11/26 02:25:43;;;;;;;3.65;1.45;;;4.10;99.90;;;;;;5045237;28;20037;-94
2021/11/26 02:28:16;;;;;;;4.03;1.55;;;4.10;99.90;;;;;;5031429;28;20394;-93
2021/11/26 02:30:42;;;;;;;;;;;4.10;99.90;;;;;;5035616;28;20064;-92
2021/11/26 02:33:14;;;;;;;3.88;1.35;;;4.10;99.90;;;;;;5034647;28;19905;-93
2021/11/26 02:35:42;;;;;;;3.67;1.20;;;4.20;99.90;;;;;;5034801;28;20049;-94
2021/11/26 02:38:12;;;;;;;2.45;0.98;;;4.20;99.90;;;;;;5036107;28;20036;-93
2021/11/26 02:40:43;;;;;;;4.47;1.30;;;4.20;99.90;;;;;;5032743;28;20045;-93
2021/11/26 02:43:14;;;;;;;2.78;1.23;;;4.20;99.90;;;;;;5038097;28;20033;-93
2021/11/26 02:45:48;;;;;;;4.55;1.42;;;4.30;99.90;;;;;;5048691;28;20144;-93
2021/11/26 02:48:25;;;;;;;6.40;2.20;;;4.30;99.90;;;;;;5036097;28;20548;-93
2021/11/26 02:51:09;;;;;;;7.20;2.60;;;4.30;99.90;;;;;;5036282;28;20046;-94
2021/11/26 02:53:38;;;;;;;6.65;2.83;;;4.40;99.90;;;;;;5035070;28;20045;-94
2021/11/26 02:56:07;;;;;;;7.28;3.38;;;4.40;99.90;;;;;;5029236;28;20071;-93
2021/11/26 02:58:34;;;;;;;10.80;5.68;;;4.40;99.90;;;;;;5036149;28;20021;-94
2021/11/26 03:01:04;;;;;;;12.90;5.50;;;4.40;99.90;;;;;;5016792;28;20037;-95
2021/11/26 03:03:33;;;;;;;11.25;5.65;;;4.40;99.90;;;;;;5018910;28;20049;-94
2021/11/26 03:06:06;;;;;;;9.50;5.80;;;4.50;99.90;;;;;;5036811;28;20108;-93
2021/11/26 03:08:35;;;;;;;8.93;5.95;;;4.50;99.90;;;;;;5037284;28;20045;-94
2021/11/26 03:11:03;;;;;;;8.75;5.75;;;4.50;99.90;;;;;;5042944;28;20034;-95
2021/11/26 03:13:31;;;;;;;10.63;6.82;;;4.40;99.90;;;;;;5035860;28;20029;-94
2021/11/26 03:16:01;;;;;;;12.02;7.68;;;4.50;99.90;;;;;;5036447;28;20036;-95
2021/11/26 03:18:36;;;;;;;10.85;7.20;;;4.40;99.90;;;;;;5036882;28;20020;-95
2021/11/26 03:21:09;;;;;;;9.50;6.22;;;4.50;99.90;;;;;;5035971;28;20547;-95
2021/11/26 03:23:38;;;;;;;9.70;6.38;;;4.40;99.90;;;;;;5032909;28;20435;-93
2021/11/26 03:26:04;;;;;;;10.35;6.75;;;4.50;99.90;;;;;;5033412;28;20107;-94
2021/11/26 03:28:37;;;;;;;13.50;8.13;;;4.50;99.90;;;;;;5051105;28;20025;-94
2021/11/26 03:31:03;;;;;;;11.77;8.07;;;4.50;99.90;;;;;;5051706;28;20448;-94
2021/11/26 03:33:31;;;;;;;9.00;6.72;;;4.40;99.90;;;;;;5051718;28;20276;-94
2021/11/26 03:35:56;;;;;;;9.10;7.03;;;4.40;99.90;;;;;;5067789;28;20059;-95
2021/11/26 03:38:22;;;;;;;11.55;7.38;;;4.50;99.90;;;;;;5035291;28;20053;-95
2021/11/26 03:40:50;;;;;;;8.88;6.95;;;4.40;99.90;;;;;;5066035;28;20473;-94
2021/11/26 03:43:16;;;;;;;10.10;7.47;;;4.40;99.90;;;;;;5052343;28;20033;-95
2021/11/26 03:45:43;;;;;;;12.88;7.80;;;4.40;99.90;;;;;;5051341;28;20301;-95
2021/11/26 03:48:09;;;;;;;11.95;7.93;;;4.40;99.90;;;;;;5018599;28;20030;-94
2021/11/26 03:50:36;;;;;;;11.88;7.60;;;4.40;99.90;;;;;;5068808;28;20103;-94
2021/11/26 03:53:02;;;;;;;10.75;7.45;;;4.40;99.90;;;;;;5034674;28;20041;-95
2021/11/26 03:55:31;;;;;;;10.63;7.57;;;4.40;99.90;;;;;;5051676;28;20061;-94
2021/11/26 03:57:58;;;;;;;11.13;6.88;;;4.40;99.90;;;;;;5068253;28;20183;-95
2021/11/26 04:00:26;;;;;;;10.00;7.47;;;4.40;99.90;;;;;;5067904;28;20036;-95
2021/11/26 04:02:52;;;;;;;12.95;8.00;;;4.40;99.90;;;;;;5034821;28;20048;-95
2021/11/26 04:05:17;;;;;;;12.20;7.80;;;4.40;99.90;;;;;;5067952;28;20025;-94
2021/11/26 04:07:44;;;;;;;11.35;7.55;;;4.50;99.90;;;;;;5034835;28;20109;-94
2021/11/26 04:10:11;;;;;;;10.35;7.47;;;4.50;99.90;;;;;;5034283;28;20060;-94
2021/11/26 04:12:39;;;;;;;8.55;6.25;;;4.50;99.90;;;;;;5035499;28;20041;-94
2021/11/26 04:15:06;;;;;;;8.20;5.55;;;4.50;99.90;;;;;;5068198;28;20040;-96
2021/11/26 04:17:37;;;;;;;12.43;5.75;;;4.50;99.90;;;;;;5068664;28;20030;-94
2021/11/26 04:20:08;;;;;;;9.70;5.60;;;4.50;99.90;;;;;;5051268;28;20057;-94
2021/11/26 04:22:34;;;;;;;8.35;4.95;;;4.50;99.90;;;;;;5066632;28;20039;-94
2021/11/26 04:25:01;;;;;;;10.32;4.25;;;4.60;99.90;;;;;;5051086;28;20128;-95
2021/11/26 04:27:27;;;;;;;9.05;5.10;;;4.50;99.90;;;;;;5051148;28;20038;-95
2021/11/26 04:29:53;;;;;;;8.32;4.35;;;4.60;99.90;;;;;;5067877;28;20048;-95
2021/11/26 04:32:20;;;;;;;7.57;3.72;;;4.60;99.90;;;;;;5067197;28;20043;-94
2021/11/26 04:34:46;;;;;;;5.63;2.95;;;4.60;99.90;;;;;;5051417;28;20469;-95
2021/11/26 04:37:14;;;;;;;5.43;3.20;;;4.60;99.90;;;;;;5034306;28;20018;-93
2021/11/26 04:39:40;;;;;;;5.57;3.05;;;4.60;99.90;;;;;;5067655;28;20022;-93
2021/11/26 04:42:06;;;;;;;4.95;2.33;;;4.70;99.90;;;;;;5017543;28;20123;-95
2021/11/26 04:44:35;;;;;;;5.28;2.63;;;4.70;99.90;;;;;;5017686;28;20128;-94
2021/11/26 04:47:01;;;;;;;5.93;2.55;;;4.70;99.90;;;;;;5067435;28;20033;-94
2021/11/26 04:49:28;;;;;;;8.52;3.47;;;4.70;99.90;;;;;;5018040;28;20029;-94
2021/11/26 04:51:55;;;;;;;5.03;2.53;;;4.70;99.90;;;;;;5066992;28;20042;-94
2021/11/26 04:54:20;;;;;;;7.50;1.88;;;4.70;99.90;;;;;;5050844;28;20113;-95
2021/11/26 04:56:46;;;;;;;6.65;2.10;;;4.70;99.90;;;;;;5050306;28;20065;-95
2021/11/26 04:59:23;;;;;;;5.25;1.70;;;4.70;99.90;;;;;;5017522;28;20030;-95
2021/11/26 05:01:49;;;;;;;6.50;1.90;;;4.70;99.90;;;;;;5034177;28;20037;-95
2021/11/26 05:04:15;;;;;;;4.90;1.90;;;4.70;99.90;;;;;;5033699;28;20038;-95
2021/11/26 05:06:41;;;;;;;7.47;2.97;;;4.70;99.90;;;;;;5067338;28;20079;-95
2021/11/26 05:09:10;;;;;;;3.88;1.90;;;4.70;99.90;;;;;;5066934;28;20562;-95
2021/11/26 05:11:38;;;;;;;5.97;1.80;;;4.70;99.90;;;;;;5067149;28;20026;-95
2021/11/26 05:14:08;;;;;;;5.15;1.67;;;4.70;99.90;;;;;;5050538;28;20187;-95
2021/11/26 05:16:36;;;;;;;2.95;1.38;;;4.70;99.90;;;;;;5034155;28;20160;-95
2021/11/26 05:19:02;;;;;;;3.72;1.40;;;4.60;99.90;;;;;;5050728;28;20025;-95
2021/11/26 05:21:28;;;;;;;2.92;1.70;;;4.60;99.90;;;;;;5033549;28;20037;-95
2021/11/26 05:23:54;;;;;;;3.13;1.40;;;4.50;99.90;;;;;;5066663;28;20087;-95
2021/11/26 05:26:21;;;;;;;3.83;1.00;;;4.50;99.90;;;;;;5034073;28;20026;-95
2021/11/26 05:28:47;;;;;;;4.97;1.55;;;4.40;99.90;;;;;;5036372;28;20091;-94
2021/11/26 05:31:13;;;;;;;4.53;1.50;;;4.40;99.90;;;;;;5033482;28;20462;-94
2021/11/26 05:33:39;;;;;;;4.72;1.20;;;4.40;99.90;;;;;;5066596;28;20021;-96
2021/11/26 05:36:05;;;;;;;4.13;0.80;;;4.40;99.90;;;;;;5017351;28;20489;-95
2021/11/26 05:38:36;;;;;;;4.00;1.30;;;4.40;99.90;;;;;;5066190;28;20057;-95
2021/11/26 05:41:04;;;;;;;3.45;1.02;;;4.40;99.90;;;;;;5066458;28;20370;-93
2021/11/26 05:43:33;;;;;;;2.50;1.33;;;4.30;99.90;;;;;;5033553;28;20037;-95
2021/11/26 05:46:06;;;;;;;4.03;1.17;;;4.40;99.90;;;;;;5066906;28;20022;-95
2021/11/26 05:48:45;;;;;;;4.10;1.20;;;4.40;99.90;;;;;;5035330;28;20485;-95
2021/11/26 05:51:21;;;;;;;3.85;1.35;;;4.40;99.90;;;;;;5063817;28;20041;-96
2021/11/26 05:53:51;;;;;;;3.63;1.38;;;4.40;99.90;;;;;;5066186;28;20140;-95
2021/11/26 05:56:20;;;;;;;2.65;1.50;;;4.40;99.90;;;;;;5017512;28;20053;-94
2021/11/26 05:58:47;;;;;;;5.10;1.80;;;4.40;99.90;;;;;;5034373;28;20039;-94
2021/11/26 06:01:14;;;;;;;4.05;1.60;;;4.40;99.90;;;;;;5033243;28;20030;-94
2021/11/26 06:03:44;;;;;;;5.63;1.90;;;4.40;99.90;;;;;;5066992;28;20026;-95
2021/11/26 06:06:10;;;;;;;2.85;1.75;;;4.30;99.90;;;;;;5038455;28;20024;-94
2021/11/26 06:08:36;;;;;;;5.50;1.67;;;4.30;99.90;;;;;;5070117;28;20029;-95
2021/11/26 06:11:03;;;;;;;3.95;2.00;;;4.30;99.90;;;;;;5038375;28;20026;-95
2021/11/26 06:13:30;;;;;;;4.13;2.00;;;4.30;99.90;;;;;;5038517;28;20037;-95
2021/11/26 06:15:56;;;;;;;7.05;2.30;;;4.20;99.90;;;;;;5021371;28;20071;-94
2021/11/26 06:18:21;;;;;;;4.15;2.33;;;4.20;99.90;;;;;;5070782;28;20120;-94
2021/11/26 06:20:47;;;;;;;6.72;2.90;;;4.20;99.90;;;;;;5038571;28;20033;-95
2021/11/26 06:23:16;;;;;;;7.18;2.95;;;4.20;99.90;;;;;;5040786;28;20081;-94
2021/11/26 06:25:45;;;;;;;7.43;3.40;;;4.20;99.90;;;;;;5035927;28;20461;-96
2021/11/26 06:28:13;;;;;;;8.57;3.33;;;4.10;99.90;;;;;;5074546;28;20037;-94
2021/11/26 06:30:46;;;;;;;8.02;3.90;;;4.10;99.90;;;;;;5041745;28;20036;-95
2021/11/26 06:33:11;;;;;;;7.05;3.35;;;4.10;99.90;;;;;;5056144;28;20035;-94
2021/11/26 06:35:38;;;;;;;7.78;4.28;;;4.20;99.90;;;;;;5052250;28;20393;-95
2021/11/26 06:38:08;;;;;;;8.43;4.38;;;4.20;99.90;;;;;;5043025;28;20030;-95
2021/11/26 06:40:37;;;;;;;8.32;3.85;;;4.20;99.90;;;;;;5042694;28;20033;-95
2021/11/26 06:43:03;;;;;;;9.18;4.22;;;4.20;99.90;;;;;;5071347;28;20033;-95
2021/11/26 06:45:31;;;;;;;10.40;4.63;;;4.20;99.90;;;;;;5053796;28;20034;-96
2021/11/26 06:48:06;;;;;;;7.68;4.60;;;4.20;99.90;;;;;;5070037;28;20108;-94
2021/11/26 06:50:32;;;;;;;10.23;4.57;;;4.20;99.90;;;;;;5036817;28;20424;-95
2021/11/26 06:53:03;;;;;;;11.00;4.65;;;4.20;99.90;;;;;;5052880;28;20032;-94
2021/11/26 06:55:29;;;;;;;7.78;4.00;;;4.20;99.90;;;;;;5069092;28;20049;-95
2021/11/26 06:58:00;;;;;;;13.23;4.82;;;4.20;99.90;;;;;;5037882;28;20117;-95
2021/11/26 07:00:36;;;;;;;9.10;4.80;;;4.20;99.90;;;;;;5037576;28;20116;-95
2021/11/26 07:03:04;;;;;;;10.85;4.50;;;4.30;99.90;;;;;;5036234;28;20061;-96
2021/11/26 07:05:33;;;;;;;10.35;4.75;;;4.30;99.90;;;;;;5054260;28;20026;-94
2021/11/26 07:08:01;;;;;;;10.07;4.35;;;4.30;99.90;;;;;;5039631;28;20029;-96
2021/11/26 07:10:27;;;;;;;9.52;4.80;;;4.30;99.90;;;;;;5037572;28;20025;-95
2021/11/26 07:12:53;;;;;;;11.93;4.85;;;4.20;99.90;;;;;;5038550;28;20032;-95
2021/11/26 07:15:21;;;;;;;9.63;4.22;;;4.30;99.90;;;;;;5068966;28;20021;-95
2021/11/26 07:17:47;;;;;;;10.65;5.75;;;4.30;99.90;;;;;;5069171;28;20029;-95
2021/11/26 07:20:18;;;;;;;14.20;6.10;;;4.20;99.90;;;;;;5052681;28;20038;-95
2021/11/26 07:22:47;;;;;;;12.98;5.65;;;4.20;99.90;;;;;;5052828;28;20092;-95
2021/11/26 07:25:16;;;;;;;13.38;5.68;;;4.20;99.90;;;;;;5068560;28;20025;-95
2021/11/26 07:27:46;;;;;;;13.52;6.40;;;4.30;99.90;;;;;;5036887;28;20096;-95
2021/11/26 07:30:28;;;;;;;13.77;6.77;;;4.30;99.90;;;;;;5037090;28;20104;-94
2021/11/26 07:32:59;;;;;;;12.80;6.25;;;4.20;99.90;;;;;;5069500;28;20089;-94
2021/11/26 07:35:26;;;;;;;20.02;7.47;;;4.30;99.90;;;;;;5052478;28;20037;-95
2021/11/26 07:37:55;;;;;;;13.00;7.45;;;4.30;99.90;;;;;;5068291;28;20130;-95
2021/11/26 07:40:41;;;;;;;17.23;8.23;;;4.30;99.90;;;;;;5068909;28;20049;-94
2021/11/26 07:43:07;;;;;;;11.73;7.28;;;4.30;99.90;;;;;;5034784;28;20032;-95
2021/11/26 07:45:38;;;;;;;19.60;8.95;;;4.30;99.90;;;;;;5051913;28;20033;-95
2021/11/26 07:48:05;;;;;;;16.77;9.35;;;4.20;99.90;;;;;;5068868;28;20067;-95
2021/11/26 07:50:35;;;;;;;17.73;9.27;;;4.20;99.90;;;;;;5035584;28;20102;-95
2021/11/26 07:53:01;;;;;;;19.10;10.55;;;4.30;99.90;;;;;;5069024;28;20018;-96
2021/11/26 07:55:39;;;;;;;17.80;9.73;;;4.20;99.90;;;;;;5018015;28;20108;-96
2021/11/26 07:58:14;;;;;;;15.57;9.43;;;4.30;99.90;;;;;;5068218;28;20457;-96
2021/11/26 08:00:40;;;;;;;20.88;10.63;;;4.30;99.90;;;;;;5051998;28;20329;-96
2021/11/26 08:03:09;;;;;;;24.90;10.85;;;4.30;99.90;;;;;;5034026;28;20397;-96
2021/11/26 08:05:46;;;;;;;20.80;10.50;;;4.20;99.90;;;;;;5018500;28;20025;-95
2021/11/26 08:08:13;;;;;;;18.83;10.18;;;4.20;99.90;;;;;;5034802;28;20025;-95
2021/11/26 08:10:41;;;;;;;22.75;9.93;;;4.30;99.90;;;;;;5018418;28;20045;-96
2021/11/26 08:13:12;;;;;;;21.73;9.57;;;4.30;99.90;;;;;;5035643;28;20106;-95
2021/11/26 08:18:32;;;;;;;19.00;9.32;;;4.30;99.90;;;;;;5033699;28;20485;-95
2021/11/26 08:21:15;;;;;;;20.45;10.00;;;4.40;99.90;;;;;;5051396;28;20157;-95
2021/11/26 08:23:49;;;;;;;21.08;9.82;;;4.40;99.90;;;;;;5035415;28;20032;-95
2021/11/26 08:26:17;;;;;;;17.48;9.65;;;4.40;99.90;;;;;;5017844;28;20028;-95
2021/11/26 08:29:11;;;;;;;22.85;9.93;;;4.40;99.90;;;;;;5034807;28;20040;-95
2021/11/26 08:31:43;;;;;;;26.75;9.35;;;4.50;99.90;;;;;;5035250;28;20529;-95
2021/11/26 08:34:34;;;;;;;;;;;4.50;99.90;;;;;;5036480;28;20041;-96
2021/11/26 08:37:01;;;;;;;24.83;8.00;;;4.50;99.90;;;;;;5034351;28;19944;-95
2021/11/26 08:39:28;;;;;;;22.80;9.25;;;4.50;99.90;;;;;;5033760;28;20153;-95
2021/11/26 08:42:16;;;;;;;23.33;9.23;;;4.50;99.90;;;;;;5033393;28;20057;-95
2021/11/26 08:45:19;;;;;;;19.33;8.52;;;4.60;99.90;;;;;;5017355;28;20152;-95
2021/11/26 08:48:11;;;;;;;17.40;7.97;;;4.60;99.90;;;;;;5054187;28;20029;-94
2021/11/26 08:50:39;;;;;;;21.60;8.90;;;4.60;99.90;;;;;;5050601;28;20033;-96
2021/11/26 08:53:21;;;;;;;19.48;7.60;;;4.60;99.90;;;;;;5034700;28;20021;-95
2021/11/26 08:56:12;;;;;;;22.73;8.30;;;4.60;99.90;;;;;;5058464;28;20057;-95
2021/11/26 08:59:02;;;;;;;20.70;8.15;;;4.70;99.90;;;;;;5033739;28;20113;-96
2021/11/26 09:01:37;;;;;;;24.52;8.70;;;4.60;99.90;;;;;;5033745;28;20037;-96
2021/11/26 09:04:09;;;;;;;;;;;4.60;99.90;;;;;;5050168;28;20044;-94
2021/11/26 09:06:45;;;;;;;18.65;6.85;;;4.70;99.90;;;;;;5049305;28;19905;-95
2021/11/26 09:09:20;;;;;;;21.73;7.93;;;4.70;99.90;;;;;;5032929;28;20513;-94
2021/11/26 09:12:02;;;;;;;22.83;8.05;;;4.70;99.90;;;;;;5033046;28;20063;-96
2021/11/26 09:14:31;;;;;;;24.33;8.43;;;4.70;99.90;;;;;;5046244;28;20044;-95
2021/11/26 09:17:00;;;;;;;20.67;7.60;;;4.70;99.90;;;;;;5032994;28;20059;-94
2021/11/26 09:19:31;;;;;;;20.23;7.78;;;4.70;99.90;;;;;;5033571;28;20018;-95
2021/11/26 09:22:03;;;;;;;30.42;9.35;;;4.70;99.90;;;;;;5035277;28;20029;-95
2021/11/26 09:24:31;;;;;;;24.88;8.65;;;4.70;99.90;;;;;;5002606;28;20025;-95
2021/11/26 09:27:16;;;;;;;21.33;8.75;;;4.80;99.90;;;;;;5018200;28;20053;-95
2021/11/26 09:29:47;;;;;;;22.33;8.85;;;4.80;99.90;;;;;;5047344;28;20025;-95
2021/11/26 09:32:24;;;;;;;22.70;8.65;;;4.80;99.90;;;;;;5016218;28;20492;-94
2021/11/26 09:34:52;;;;;;;25.20;9.82;;;4.80;99.90;;;;;;5033836;28;20065;-95
2021/11/26 09:37:25;;;;;;;28.85;8.60;;;4.90;99.90;;;;;;5032949;28;20036;-96
2021/11/26 09:39:53;;;;;;;21.15;7.97;;;4.80;99.90;;;;;;5036109;28;20120;-93
2021/11/26 09:42:21;;;;;;;19.52;7.95;;;4.90;99.90;;;;;;5037303;28;20053;-95
2021/11/26 09:44:49;;;;;;;20.55;8.32;;;4.90;99.90;;;;;;5037511;28;20488;-95
2021/11/26 09:47:18;;;;;;;26.17;9.02;;;4.90;99.90;;;;;;5035259;28;20048;-95
2021/11/26 09:49:59;;;;;;;23.67;8.45;;;5.00;99.90;;;;;;5020182;28;20091;-94
2021/11/26 09:52:56;;;;;;;21.67;8.45;;;5.00;99.90;;;;;;5069360;28;20123;-94
2021/11/26 09:55:28;;;;;;;17.85;7.38;;;5.00;99.90;;;;;;5023747;28;20060;-94
2021/11/26 09:58:17;;;;;;;19.25;7.88;;;5.10;99.90;;;;;;5036088;28;20091;-95
2021/11/26 10:00:48;;;;;;;16.60;6.32;;;5.20;99.90;;;;;;5069477;28;20029;-94
2021/11/26 10:03:21;;;;;;;20.63;6.93;;;5.30;99.90;;;;;;5036142;28;20028;-95
2021/11/26 10:05:47;;;;;;;18.85;6.28;;;5.60;99.90;;;;;;5052619;28;20132;-95
2021/11/26 10:08:25;;;;;;;15.68;5.35;;;6.00;99.90;;;;;;5052226;28;20120;-94
2021/11/26 10:11:13;;;;;;;16.52;6.38;;;6.50;99.90;;;;;;5036052;28;20040;-93
2021/11/26 10:13:58;;;;;;;14.05;5.68;;;6.80;99.90;;;;;;5019337;28;20036;-95
2021/11/26 10:16:26;;;;;;;15.50;6.18;;;6.90;99.90;;;;;;5036201;28;20034;-95
2021/11/26 10:18:53;;;;;;;13.05;4.82;;;7.20;99.90;;;;;;5017178;28;20034;-96
2021/11/26 10:21:27;;;;;;;14.13;4.80;;;7.60;99.90;;;;;;5050588;28;20425;-96
2021/11/26 10:24:03;;;;;;;11.32;4.70;;;8.30;99.90;;;;;;5035028;28;20252;-96
2021/11/26 10:26:45;;;;;;;11.90;4.82;;;9.10;99.90;;;;;;5043299;28;20040;-94
2021/11/26 10:29:27;;;;;;;11.55;4.43;;;9.80;99.90;;;;;;5044773;28;20033;-95
2021/11/26 10:32:32;;;;;;;13.10;5.10;;;10.30;99.90;;;;;;5038735;28;20045;-92
2021/11/26 10:35:12;;;;;;;10.40;3.95;;;10.30;99.90;;;;;;5052829;28;20049;-95
2021/11/26 10:37:49;;;;;;;13.57;4.00;;;9.80;99.90;;;;;;5039182;28;20021;-92
2021/11/26 10:40:24;;;;;;;12.50;4.72;;;9.20;99.90;;;;;;5026122;28;20030;-93
2021/11/26 10:42:53;;;;;;;9.85;4.68;;;8.60;99.90;;;;;;5044872;28;20152;-94
2021/11/26 10:45:49;;;;;;;13.65;4.00;;;8.10;99.90;;;;;;5045534;28;20068;-93
2021/11/26 10:59:49;;;;;;;8.57;3.70;;;6.50;99.90;;;;;;5033293;28;20558;-95
2021/11/26 11:02:35;;;;;;;12.75;4.25;;;6.40;99.90;;;;;;5042429;28;20040;-95
2021/11/26 11:05:59;;;;;;;10.82;3.50;;;6.30;99.90;;;;;;5026690;28;20036;-93
2021/11/26 11:08:45;;;;;;;16.57;4.90;;;6.20;99.90;;;;;;5022153;28;20029;-96
2021/11/26 11:11:15;;;;;;;;;;;6.20;99.90;;;;;;5042688;28;20326;-95
2021/11/26 11:13:47;;;;;;;11.40;4.00;;;6.10;99.90;;;;;;5042592;28;20122;-94
2021/11/26 11:16:15;;;;;;;12.50;3.60;;;6.20;99.90;;;;;;5020281;28;20041;-94
2021/11/26 11:18:47;;;;;;;10.52;3.83;;;6.20;99.90;;;;;;5028193;28;20120;-92
2021/11/26 11:21:59;;;;;;;11.15;4.03;;;6.30;99.90;;;;;;5032111;28;20170;-93
2021/11/26 11:24:35;;;;;;;10.18;3.55;;;6.30;99.90;;;;;;5038374;28;20194;-93
2021/11/26 11:27:04;;;;;;;10.13;3.72;;;6.40;99.90;;;;;;5059545;28;20033;-92
2021/11/26 11:29:41;;;;;;;10.02;3.50;;;6.80;99.90;;;;;;5057860;28;20037;-93
2021/11/26 11:32:11;;;;;;;10.95;3.78;;;7.20;99.90;;;;;;5040247;28;20214;-92
2021/11/26 11:34:47;;;;;;;10.18;3.38;;;7.60;99.90;;;;;;5035264;28;20307;-92
2021/11/26 11:37:32;;;;;;;;;;;;;;;;;;;;;
2021/11/26 11:40:20;;;;;;;13.82;4.95;;;7.50;99.90;;;;;;5038818;28;20043;-94
2021/11/26 11:42:47;;;;;;;11.05;3.92;;;7.20;99.90;;;;;;5053494;28;20052;-93
2021/11/26 11:45:26;;;;;;;11.52;4.20;;;7.10;99.90;;;;;;5052654;28;20079;-93
2021/11/26 11:48:17;;;;;;;12.65;3.85;;;6.90;99.90;;;;;;5054096;28;20056;-93
2021/11/26 11:51:07;;;;;;;11.13;4.35;;;6.80;99.90;;;;;;5052773;28;20041;-92
2021/11/26 11:54:18;;;;;;;15.13;4.50;;;6.80;99.90;;;;;;5052877;28;20079;-93
2021/11/26 11:56:47;;;;;;;13.63;4.55;;;6.90;99.90;;;;;;5008409;28;1281758;-92
2021/11/26 11:59:36;;;;;;;11.93;4.45;;;6.90;99.90;;;;;;5052815;28;20124;-91
2021/11/26 12:02:23;;;;;;;12.60;4.03;;;7.00;99.90;;;;;;5069092;28;20118;-93
2021/11/26 12:04:56;;;;;;;14.75;4.53;;;7.00;99.90;;;;;;5054490;28;20480;-89
2021/11/26 12:07:33;;;;;;;14.52;4.15;;;6.90;99.90;;;;;;5039805;28;20501;-93
2021/11/26 12:10:15;;;;;;;13.20;4.45;;;6.70;99.90;;;;;;5023027;28;20489;-92
2021/11/26 12:12:48;;;;;;;10.38;4.45;;;6.50;99.90;;;;;;5034347;28;20040;-94
2021/11/26 12:15:41;;;;;;;;;;;6.20;99.90;;;;;;5037624;28;20076;-92
2021/11/26 12:18:23;;;;;;;12.00;4.07;;;6.00;99.90;;;;;;5029391;28;19910;-94
2021/11/26 12:21:20;;;;;;;10.95;4.22;;;5.70;99.90;;;;;;5028179;28;20034;-91
2021/11/26 12:24:18;;;;;;;15.65;4.43;;;5.60;99.90;;;;;;5035037;28;20540;-93
2021/11/26 12:26:58;;;;;;;9.25;3.70;;;5.40;99.90;;;;;;5029519;28;20063;-91
2021/11/26 12:29:44;;;;;;;11.82;5.63;;;5.30;99.90;;;;;;5025349;28;20029;-93
2021/11/26 12:32:31;;;;;;;9.00;3.92;;;5.20;99.90;;;;;;5036205;28;20021;-94
2021/11/26 12:35:12;;;;;;;16.23;4.57;;;5.10;99.90;;;;;;5035034;28;20037;-93
2021/11/26 12:37:41;;;;;;;16.08;5.80;;;5.00;99.90;;;;;;5037546;28;20050;-93
2021/11/26 12:40:31;;;;;;;12.13;5.55;;;4.90;99.90;;;;;;5028326;28;20379;-93
2021/11/26 12:43:02;;;;;;;10.82;5.43;;;4.80;99.90;;;;;;5046752;28;20032;-93
2021/11/26 12:45:36;;;;;;;15.50;6.32;;;4.70;99.90;;;;;;5038004;28;20028;-92
2021/11/26 12:48:22;;;;;;;12.55;5.95;;;4.60;99.90;;;;;;5015315;28;20042;-94
2021/11/26 12:51:21;;;;;;;13.07;6.22;;;4.50;99.90;;;;;;5032859;28;20037;-94
2021/11/26 12:56:52;;;;;;;13.50;6.60;;;4.40;99.90;;;;;;5034539;28;20072;-96
2021/11/26 12:59:46;;;;;;;12.90;7.38;;;4.40;99.90;;;;;;5026829;28;20048;-95
2021/11/26 13:02:41;;;;;;;15.02;6.45;;;4.30;99.90;;;;;;5028180;28;20033;-94
2021/11/26 13:05:21;;;;;;;8.75;5.47;;;4.30;99.90;;;;;;5032937;28;20037;-94
2021/11/26 13:07:50;;;;;;;8.68;5.30;;;4.30;99.90;;;;;;5032639;28;20584;-95
2021/11/26 13:10:26;;;;;;;11.73;5.78;;;4.30;99.90;;;;;;5032566;28;20492;-94
2021/11/26 13:12:58;;;;;;;13.02;6.35;;;4.20;99.90;;;;;;5030536;28;20038;-96
2021/11/26 13:15:35;;;;;;;11.85;5.80;;;4.30;99.90;;;;;;5012708;28;20421;-95
2021/11/26 13:18:18;;;;;;;13.05;6.43;;;4.20;99.90;;;;;;5014914;28;20030;-94
2021/11/26 13:20:50;;;;;;;12.07;5.60;;;4.20;99.90;;;;;;5013177;28;20113;-94
2021/11/26 13:23:28;;;;;;;12.02;5.57;;;4.10;99.90;;;;;;5012602;28;20049;-93
2021/11/26 13:26:00;;;;;;;13.40;5.13;;;4.20;99.90;;;;;;5029427;28;20041;-94
2021/11/26 13:28:34;;;;;;;10.95;5.13;;;4.10;99.90;;;;;;5032259;28;20026;-94
2021/11/26 13:31:49;;;;;;;9.68;5.25;;;4.10;99.90;;;;;;5031553;28;20045;-96
2021/11/26 13:34:15;;;;;;;12.80;5.78;;;4.10;99.90;;;;;;5028437;28;20033;-93
2021/11/26 13:36:45;;;;;;;9.60;5.22;;;4.10;99.90;;;;;;5034919;28;20521;-94
2021/11/26 13:39:13;;;;;;;7.72;4.88;;;4.00;99.90;;;;;;5041110;28;20492;-93
2021/11/26 13:41:59;;;;;;;9.85;5.63;;;4.00;99.90;;;;;;5031722;28;20060;-93
2021/11/26 13:44:49;;;;;;;;;;;;;;;;;;;;;